Time;durP1;ratioP1;P1;durP2;ratioP2;P2;SDS_P1;SDS_P2;PMS_P1;PMS_P2;Temp;Humidity;BMP_temperature;BMP_pressure;BME280_temperature;BME280_humidity;BME280_pressure;Samples;Min_cycle;Max_cycle;Signal;HPM_P1;HPM_P2
2023/03/29 00:00:25;;;;;;;4.60;4.20;;;;;;;;;;5051275;28;20862;-85
2023/03/29 00:02:51;;;;;;;4.82;4.35;;;;;;;;;;5051411;28;20464;-85
2023/03/29 00:05:21;;;;;;;5.30;4.80;;;;;;;;;;5051194;28;20740;-84
2023/03/29 00:07:52;;;;;;;5.10;4.70;;;;;;;;;;5051187;28;20393;-84
2023/03/29 00:10:19;;;;;;;4.80;4.40;;;;;;;;;;5051296;28;20459;-84
2023/03/29 00:12:46;;;;;;;4.85;4.28;;;;;;;;;;5051054;28;20381;-84
2023/03/29 00:15:12;;;;;;;4.68;4.28;;;;;;;;;;5050913;28;20384;-85
2023/03/29 00:17:38;;;;;;;4.60;4.20;;;;;;;;;;5038270;28;20382;-84
2023/03/29 00:20:11;;;;;;;5.45;3.90;;;;;;;;;;5050045;28;20381;-84
2023/03/29 00:22:38;;;;;;;4.15;3.85;;;;;;;;;;5050821;28;20390;-84
2023/03/29 00:25:06;;;;;;;4.40;4.03;;;;;;;;;;5051015;28;20374;-84
2023/03/29 00:27:32;;;;;;;4.40;4.00;;;;;;;;;;5051167;28;20391;-84
2023/03/29 00:29:58;;;;;;;4.00;3.70;;;;;;;;;;5032906;28;20886;-84
2023/03/29 00:32:24;;;;;;;4.50;4.20;;;;;;;;;;5051034;28;20414;-84
2023/03/29 00:34:50;;;;;;;4.00;3.70;;;;;;;;;;5050466;28;20385;-84
2023/03/29 00:37:17;;;;;;;4.13;3.83;;;;;;;;;;5051039;28;20385;-84
2023/03/29 00:39:44;;;;;;;4.78;4.38;;;;;;;;;;5050576;28;20809;-84
2023/03/29 00:42:12;;;;;;;4.80;4.40;;;;;;;;;;5051051;28;20735;-84
2023/03/29 00:44:53;;;;;;;4.88;4.47;;;;;;;;;;5050879;28;20378;-84
2023/03/29 00:47:22;;;;;;;5.20;4.35;;;;;;;;;;5038287;28;20381;-84
2023/03/29 00:49:49;;;;;;;4.72;4.10;;;;;;;;;;5050663;28;20726;-85
2023/03/29 00:52:17;;;;;;;5.43;4.10;;;;;;;;;;5050321;28;20404;-84
2023/03/29 00:54:44;;;;;;;4.47;4.07;;;;;;;;;;5050707;28;20485;-85
2023/03/29 00:57:11;;;;;;;4.50;4.00;;;;;;;;;;5050968;28;20724;-84
2023/03/29 00:59:38;;;;;;;4.55;4.15;;;;;;;;;;5050704;28;20381;-84
2023/03/29 01:02:05;;;;;;;4.30;3.90;;;;;;;;;;5050649;28;20507;-84
2023/03/29 01:04:39;;;;;;;4.27;3.93;;;;;;;;;;5050446;28;20465;-84
2023/03/29 01:07:09;;;;;;;5.83;4.00;;;;;;;;;;5050573;28;20463;-84
2023/03/29 01:09:37;;;;;;;4.65;4.13;;;;;;;;;;5032664;28;20943;-84
2023/03/29 01:12:08;;;;;;;4.15;3.85;;;;;;;;;;5050584;28;20444;-84
2023/03/29 01:14:37;;;;;;;3.92;3.55;;;;;;;;;;5050410;28;20717;-84
2023/03/29 01:17:03;;;;;;;4.30;3.90;;;;;;;;;;5050560;28;20377;-85
2023/03/29 01:22:37;;;;;;;4.23;3.70;;;;;;;;;;5050366;28;20982;-86
2023/03/29 01:25:15;;;;;;;3.83;3.47;;;;;;;;;;5050408;28;20370;-85
2023/03/29 01:27:48;;;;;;;4.45;4.05;;;;;;;;;;5050521;28;20384;-86
2023/03/29 01:30:18;;;;;;;4.78;3.60;;;;;;;;;;5037136;28;20490;-84
2023/03/29 01:32:50;;;;;;;4.10;3.80;;;;;;;;;;5053752;28;20388;-86
2023/03/29 01:35:22;;;;;;;3.80;3.50;;;;;;;;;;5032952;28;20379;-86
2023/03/29 01:37:55;;;;;;;3.85;3.38;;;;;;;;;;5047026;28;20466;-84
2023/03/29 01:40:21;;;;;;;3.83;3.53;;;;;;;;;;5039741;28;20404;-86
2023/03/29 01:42:47;;;;;;;4.50;4.00;;;;;;;;;;5053283;28;20393;-86
2023/03/29 01:45:16;;;;;;;6.25;3.83;;;;;;;;;;5052742;28;20928;-85
2023/03/29 01:47:49;;;;;;;3.92;3.55;;;;;;;;;;5053980;28;20421;-84
2023/03/29 01:50:33;;;;;;;3.60;3.30;;;;;;;;;;5053806;28;20510;-84
2023/03/29 01:53:02;;;;;;;4.50;4.10;;;;;;;;;;5062783;28;20370;-85
2023/03/29 01:55:31;;;;;;;4.00;3.67;;;;;;;;;;5066030;28;20453;-85
2023/03/29 01:57:59;;;;;;;4.63;4.22;;;;;;;;;;5067006;28;20412;-86
2023/03/29 02:00:26;;;;;;;4.45;4.00;;;;;;;;;;5075481;22;20441;-79
2023/03/29 02:02:54;;;;;;;6.70;4.10;;;;;;;;;;5038759;28;20444;-80
2023/03/29 02:05:21;;;;;;;4.10;3.80;;;;;;;;;;5034768;28;20402;-80
2023/03/29 02:07:47;;;;;;;4.50;4.10;;;;;;;;;;5034313;28;20394;-81
2023/03/29 02:10:15;;;;;;;4.15;3.75;;;;;;;;;;5033990;28;20880;-80
2023/03/29 02:12:41;;;;;;;4.28;3.88;;;;;;;;;;5034030;28;20433;-81
2023/03/29 02:15:11;;;;;;;4.82;4.35;;;;;;;;;;5035197;28;20438;-80
2023/03/29 02:17:37;;;;;;;4.88;4.47;;;;;;;;;;5034262;28;20387;-80
2023/03/29 02:20:13;;;;;;;4.80;4.25;;;;;;;;;;5032798;28;20391;-80
2023/03/29 02:23:00;;;;;;;4.85;4.45;;;;;;;;;;5031710;28;20403;-80
2023/03/29 02:25:27;;;;;;;4.80;4.40;;;;;;;;;;5019343;28;20441;-80
2023/03/29 02:27:53;;;;;;;5.22;4.72;;;;;;;;;;5017906;28;20437;-81
2023/03/29 02:30:20;;;;;;;5.15;4.68;;;;;;;;;;5025790;28;20457;-80
2023/03/29 02:32:58;;;;;;;5.28;4.78;;;;;;;;;;5032095;28;20745;-81
2023/03/29 02:35:33;;;;;;;4.80;4.40;;;;;;;;;;5033032;28;20375;-80
2023/03/29 02:38:01;;;;;;;4.95;4.43;;;;;;;;;;5032894;28;20385;-80
2023/03/29 02:40:27;;;;;;;6.60;4.88;;;;;;;;;;5032670;28;20422;-80
2023/03/29 02:42:54;;;;;;;6.88;5.10;;;;;;;;;;5030895;28;20788;-80
2023/03/29 02:45:21;;;;;;;6.70;5.00;;;;;;;;;;5032867;28;20383;-80
2023/03/29 02:47:50;;;;;;;6.15;4.65;;;;;;;;;;5032767;28;20795;-80
2023/03/29 02:50:16;;;;;;;5.15;4.65;;;;;;;;;;5032613;28;20871;-80
2023/03/29 02:52:45;;;;;;;4.90;4.40;;;;;;;;;;5031516;28;20445;-80
2023/03/29 02:55:14;;;;;;;4.55;4.15;;;;;;;;;;5032491;28;20387;-80
2023/03/29 02:57:42;;;;;;;4.68;4.28;;;;;;;;;;5032561;28;20470;-80
2023/03/29 03:00:09;;;;;;;4.85;4.35;;;;;;;;;;5032006;28;20498;-80
2023/03/29 03:02:36;;;;;;;4.93;4.40;;;;;;;;;;5032504;28;20866;-81
2023/03/29 03:05:02;;;;;;;4.47;4.07;;;;;;;;;;5032123;28;20390;-80
2023/03/29 03:07:28;;;;;;;4.80;4.40;;;;;;;;;;5032288;28;20388;-81
2023/03/29 03:09:54;;;;;;;4.90;4.50;;;;;;;;;;5032276;28;20379;-81
2023/03/29 03:12:20;;;;;;;6.15;4.72;;;;;;;;;;5032316;28;20403;-81
2023/03/29 03:14:47;;;;;;;5.55;5.05;;;;;;;;;;5032282;28;20749;-81
2023/03/29 03:17:13;;;;;;;6.03;4.60;;;;;;;;;;5032391;28;20382;-81
2023/03/29 03:19:39;;;;;;;5.22;4.72;;;;;;;;;;5030602;28;20395;-80
2023/03/29 03:22:06;;;;;;;4.70;4.30;;;;;;;;;;5032103;28;20422;-80
2023/03/29 03:24:32;;;;;;;5.10;4.70;;;;;;;;;;5031800;28;20387;-80
2023/03/29 03:26:58;;;;;;;5.68;4.50;;;;;;;;;;5032024;28;20466;-81
2023/03/29 03:29:27;;;;;;;5.00;4.60;;;;;;;;;;5031978;28;20378;-81
2023/03/29 03:31:54;;;;;;;5.18;4.70;;;;;;;;;;5031777;28;20768;-81
2023/03/29 03:34:20;;;;;;;4.72;4.38;;;;;;;;;;5031956;28;20437;-81
2023/03/29 03:36:46;;;;;;;4.63;4.22;;;;;;;;;;5015398;28;20750;-79
2023/03/29 03:39:12;;;;;;;4.88;4.30;;;;;;;;;;5021561;28;20390;-79
2023/03/29 03:41:38;;;;;;;5.90;4.07;;;;;;;;;;5029759;28;20390;-79
2023/03/29 03:44:04;;;;;;;4.75;4.35;;;;;;;;;;5030157;28;20394;-79
2023/03/29 03:46:30;;;;;;;4.53;4.13;;;;;;;;;;5029959;28;20787;-79
2023/03/29 03:48:58;;;;;;;6.45;4.68;;;;;;;;;;5029711;28;20391;-79
2023/03/29 03:51:24;;;;;;;4.70;4.25;;;;;;;;;;5029938;28;20450;-79
2023/03/29 03:53:50;;;;;;;4.95;4.45;;;;;;;;;;5029984;28;20386;-79
2023/03/29 03:56:16;;;;;;;4.72;4.32;;;;;;;;;;5030100;28;20383;-79
2023/03/29 03:58:43;;;;;;;4.63;4.22;;;;;;;;;;5031322;28;20513;-79
2023/03/29 04:01:09;;;;;;;6.20;4.40;;;;;;;;;;5031144;28;20407;-79
2023/03/29 04:03:36;;;;;;;5.05;4.40;;;;;;;;;;5030843;28;20387;-79
2023/03/29 04:06:02;;;;;;;5.15;4.65;;;;;;;;;;5031468;28;20883;-79
2023/03/29 04:08:29;;;;;;;4.30;3.90;;;;;;;;;;5031239;28;20387;-79
2023/03/29 04:10:56;;;;;;;4.68;4.20;;;;;;;;;;5031010;28;20746;-79
2023/03/29 04:13:22;;;;;;;4.90;4.50;;;;;;;;;;5031207;28;20386;-79
2023/03/29 04:15:52;;;;;;;4.68;4.30;;;;;;;;;;5031164;28;20461;-79
2023/03/29 04:18:19;;;;;;;5.30;4.43;;;;;;;;;;5030825;28;20375;-79
2023/03/29 04:20:46;;;;;;;5.18;4.70;;;;;;;;;;5029809;28;20391;-79
2023/03/29 04:23:12;;;;;;;4.68;4.22;;;;;;;;;;5027709;28;20405;-79
2023/03/29 04:25:38;;;;;;;4.68;4.28;;;;;;;;;;5022200;28;20786;-79
2023/03/29 04:28:04;;;;;;;5.13;4.63;;;;;;;;;;5016514;28;20398;-79
2023/03/29 04:30:30;;;;;;;5.30;4.72;;;;;;;;;;5018929;28;20760;-80
2023/03/29 04:32:56;;;;;;;5.47;4.97;;;;;;;;;;5030535;28;20379;-79
2023/03/29 04:35:22;;;;;;;5.00;4.50;;;;;;;;;;5029301;28;20375;-79
2023/03/29 04:37:49;;;;;;;5.10;4.70;;;;;;;;;;5017144;28;20941;-79
2023/03/29 04:40:18;;;;;;;6.28;4.95;;;;;;;;;;5026953;28;20415;-82
2023/03/29 04:42:44;;;;;;;4.93;4.45;;;;;;;;;;5026854;28;20387;-80
2023/03/29 04:45:12;;;;;;;5.60;5.10;;;;;;;;;;5029182;28;20387;-80
2023/03/29 04:47:39;;;;;;;5.27;4.60;;;;;;;;;;5030768;28;20383;-80
2023/03/29 04:50:05;;;;;;;4.80;4.30;;;;;;;;;;5030368;28;20394;-80
2023/03/29 04:52:32;;;;;;;4.47;4.15;;;;;;;;;;5030751;28;20453;-80
2023/03/29 04:55:01;;;;;;;5.13;4.63;;;;;;;;;;5030704;28;20466;-80
2023/03/29 04:57:27;;;;;;;4.68;4.28;;;;;;;;;;5029280;28;20769;-80
2023/03/29 04:59:53;;;;;;;4.80;4.40;;;;;;;;;;5029143;28;20386;-80
2023/03/29 05:02:19;;;;;;;4.87;4.40;;;;;;;;;;5029533;28;20775;-80
2023/03/29 05:04:45;;;;;;;5.22;4.32;;;;;;;;;;5027570;28;20415;-80
2023/03/29 05:07:14;;;;;;;4.67;4.27;;;;;;;;;;5032821;28;20462;-80
2023/03/29 05:09:40;;;;;;;4.35;3.95;;;;;;;;;;5031684;28;20387;-80
2023/03/29 05:12:07;;;;;;;6.35;5.75;;;;;;;;;;5033582;28;20477;-80
2023/03/29 05:14:33;;;;;;;5.45;4.80;;;;;;;;;;5034021;28;20775;-80
2023/03/29 05:17:00;;;;;;;4.80;4.40;;;;;;;;;;5034598;28;20391;-80
2023/03/29 05:19:26;;;;;;;4.70;4.30;;;;;;;;;;5034612;28;20436;-80
2023/03/29 05:21:52;;;;;;;5.10;4.60;;;;;;;;;;5033553;28;20395;-80
2023/03/29 05:24:19;;;;;;;5.28;4.68;;;;;;;;;;5035120;28;20413;-79
2023/03/29 05:26:46;;;;;;;5.88;5.30;;;;;;;;;;5041114;28;20745;-79
2023/03/29 05:29:12;;;;;;;5.47;4.93;;;;;;;;;;5037693;28;20391;-80
2023/03/29 05:31:39;;;;;;;7.68;6.88;;;;;;;;;;5035453;28;20406;-81
2023/03/29 05:34:05;;;;;;;6.63;5.35;;;;;;;;;;5035323;28;20429;-80
2023/03/29 05:36:32;;;;;;;5.60;5.10;;;;;;;;;;5034738;28;20379;-80
2023/03/29 05:39:00;;;;;;;5.72;5.22;;;;;;;;;;5022849;28;21362;-80
2023/03/29 05:41:26;;;;;;;5.82;5.32;;;;;;;;;;5034104;28;20433;-79
2023/03/29 05:43:52;;;;;;;5.78;5.18;;;;;;;;;;5033760;28;20379;-80
2023/03/29 05:46:19;;;;;;;6.65;4.63;;;;;;;;;;5033951;28;20382;-80
2023/03/29 05:48:45;;;;;;;5.00;4.45;;;;;;;;;;5034056;28;20383;-79
2023/03/29 05:51:11;;;;;;;5.00;4.50;;;;;;;;;;5033275;28;20464;-80
2023/03/29 05:53:37;;;;;;;4.88;4.40;;;;;;;;;;5033691;28;20860;-79
2023/03/29 05:56:03;;;;;;;5.10;4.60;;;;;;;;;;5033815;28;20380;-80
2023/03/29 05:58:29;;;;;;;4.87;4.47;;;;;;;;;;5033881;28;20842;-80
2023/03/29 06:00:56;;;;;;;6.93;4.70;;;;;;;;;;5033432;28;20418;-80
2023/03/29 06:03:26;;;;;;;5.35;4.85;;;;;;;;;;5033625;28;20407;-80
2023/03/29 06:06:02;;;;;;;5.93;5.07;;;;;;;;;;5033684;28;20394;-80
2023/03/29 06:08:28;;;;;;;5.43;4.93;;;;;;;;;;5033528;28;20406;-80
2023/03/29 06:10:59;;;;;;;6.03;4.97;;;;;;;;;;5033252;28;20493;-81
2023/03/29 06:13:26;;;;;;;4.85;4.40;;;;;;;;;;5033564;28;20387;-82
2023/03/29 06:15:52;;;;;;;5.72;4.95;;;;;;;;;;5015603;28;20905;-79
2023/03/29 06:18:19;;;;;;;5.82;4.90;;;;;;;;;;5033416;28;20882;-80
2023/03/29 06:20:48;;;;;;;5.28;4.60;;;;;;;;;;5033317;28;20387;-80
2023/03/29 06:23:14;;;;;;;5.30;4.80;;;;;;;;;;5033156;28;20379;-79
2023/03/29 06:25:40;;;;;;;5.73;5.23;;;;;;;;;;5033053;28;20469;-79
2023/03/29 06:28:06;;;;;;;5.30;4.80;;;;;;;;;;5031814;28;20415;-79
2023/03/29 06:30:32;;;;;;;5.80;5.30;;;;;;;;;;5033025;28;20407;-79
2023/03/29 06:32:59;;;;;;;5.57;5.18;;;;;;;;;;5032990;28;20379;-80
2023/03/29 06:35:26;;;;;;;5.57;4.97;;;;;;;;;;5033180;28;20383;-80
2023/03/29 06:37:53;;;;;;;5.50;4.88;;;;;;;;;;5032937;28;20410;-80
2023/03/29 06:40:23;;;;;;;7.30;5.00;;;;;;;;;;5032727;28;20431;-80
2023/03/29 06:42:56;;;;;;;5.95;4.95;;;;;;;;;;5031845;28;20462;-80
2023/03/29 06:45:22;;;;;;;5.05;4.65;;;;;;;;;;5032759;28;20383;-80
2023/03/29 06:47:48;;;;;;;5.05;4.60;;;;;;;;;;5032760;28;20466;-81
2023/03/29 06:50:16;;;;;;;5.50;5.00;;;;;;;;;;5032645;28;20418;-80
2023/03/29 06:52:42;;;;;;;5.32;4.93;;;;;;;;;;5032711;28;20418;-80
2023/03/29 06:55:08;;;;;;;5.28;4.88;;;;;;;;;;5014774;28;20857;-79
2023/03/29 06:57:34;;;;;;;5.28;4.88;;;;;;;;;;5032618;28;20375;-80
2023/03/29 07:00:00;;;;;;;5.28;4.80;;;;;;;;;;5032315;28;20414;-79
2023/03/29 07:02:27;;;;;;;5.85;5.13;;;;;;;;;;5030318;28;20456;-79
2023/03/29 07:04:54;;;;;;;7.60;5.90;;;;;;;;;;5032642;28;20387;-79
2023/03/29 07:07:21;;;;;;;6.18;5.38;;;;;;;;;;5032284;28;20477;-79
2023/03/29 07:09:52;;;;;;;6.78;6.18;;;;;;;;;;5030857;28;20391;-79
2023/03/29 07:12:20;;;;;;;8.75;7.85;;;;;;;;;;5035698;28;20414;-79
2023/03/29 07:14:46;;;;;;;7.43;6.75;;;;;;;;;;5031899;28;20871;-80
2023/03/29 07:17:12;;;;;;;9.85;8.65;;;;;;;;;;5031989;28;20410;-80
2023/03/29 07:19:39;;;;;;;7.90;7.20;;;;;;;;;;5031836;28;20454;-80
2023/03/29 07:22:05;;;;;;;7.90;7.10;;;;;;;;;;5032281;28;20868;-80
2023/03/29 07:24:31;;;;;;;6.87;6.27;;;;;;;;;;5032005;28;20390;-80
2023/03/29 07:26:57;;;;;;;6.00;5.50;;;;;;;;;;5031984;28;20798;-79
2023/03/29 07:29:23;;;;;;;5.90;5.40;;;;;;;;;;5031519;28;20389;-79
2023/03/29 07:31:49;;;;;;;5.93;5.43;;;;;;;;;;5031689;28;20411;-81
2023/03/29 07:34:16;;;;;;;5.70;5.20;;;;;;;;;;5031606;28;20414;-80
2023/03/29 07:36:44;;;;;;;5.50;5.00;;;;;;;;;;5031701;28;20383;-80
2023/03/29 07:39:11;;;;;;;6.15;5.65;;;;;;;;;;5028854;28;20943;-80
2023/03/29 07:41:38;;;;;;;6.50;5.90;;;;;;;;;;5031556;28;20387;-79
2023/03/29 07:44:07;;;;;;;8.63;6.05;;;;;;;;;;5031552;28;20395;-79
2023/03/29 07:46:34;;;;;;;6.90;6.25;;;;;;;;;;5031562;28;20380;-79
2023/03/29 07:49:01;;;;;;;6.60;5.45;;;;;;;;;;5031564;28;20398;-79
2023/03/29 07:51:27;;;;;;;6.00;5.00;;;;;;;;;;5025346;28;20811;-79
2023/03/29 07:53:53;;;;;;;6.82;5.25;;;;;;;;;;5031285;28;20414;-79
2023/03/29 07:56:19;;;;;;;6.90;4.65;;;;;;;;;;5029607;28;20899;-79
2023/03/29 07:58:45;;;;;;;5.45;4.95;;;;;;;;;;5031383;28;20387;-79
2023/03/29 08:01:14;;;;;;;6.00;4.63;;;;;;;;;;5031085;28;20434;-79
2023/03/29 08:03:40;;;;;;;5.18;4.68;;;;;;;;;;5031261;28;20403;-80
2023/03/29 08:06:07;;;;;;;4.60;4.18;;;;;;;;;;5031112;28;20401;-79
2023/03/29 08:08:33;;;;;;;5.00;4.35;;;;;;;;;;5031322;28;20488;-79
2023/03/29 08:10:59;;;;;;;4.78;4.35;;;;;;;;;;5031048;28;20446;-79
2023/03/29 08:13:26;;;;;;;6.32;5.68;;;;;;;;;;5030915;28;20386;-80
2023/03/29 08:15:52;;;;;;;8.32;5.25;;;;;;;;;;5031213;28;20415;-80
2023/03/29 08:18:18;;;;;;;7.13;4.00;;;;;;;;;;5031275;28;20558;-80
2023/03/29 08:20:44;;;;;;;5.35;3.58;;;;;;;;;;5031298;28;20381;-79
2023/03/29 08:23:10;;;;;;;4.82;3.13;;;;;;;;;;5031162;28;20387;-80
2023/03/29 08:25:36;;;;;;;2.72;2.53;;;;;;;;;;5031160;28;20387;-79
2023/03/29 08:28:02;;;;;;;3.15;2.58;;;;;;;;;;5031036;28;20887;-80
2023/03/29 08:30:28;;;;;;;3.95;2.35;;;;;;;;;;5030667;28;20430;-83
2023/03/29 08:32:54;;;;;;;2.97;2.67;;;;;;;;;;5024905;28;20972;-79
2023/03/29 08:35:21;;;;;;;3.20;2.40;;;;;;;;;;5029714;28;20379;-79
2023/03/29 08:37:47;;;;;;;2.53;2.20;;;;;;;;;;5028400;28;20395;-79
2023/03/29 08:40:21;;;;;;;3.08;2.25;;;;;;;;;;5030709;28;20375;-80
2023/03/29 08:42:55;;;;;;;4.50;2.08;;;;;;;;;;5034585;28;20394;-79
2023/03/29 08:45:32;;;;;;;3.20;2.30;;;;;;;;;;5034235;28;20375;-79
2023/03/29 08:48:37;;;;;;;4.38;2.20;;;;;;;;;;5035067;28;20872;-79
2023/03/29 08:51:06;;;;;;;2.63;2.10;;;;;;;;;;4937651;29;20431;-79
2023/03/29 08:53:39;;;;;;;2.88;2.25;;;;;;;;;;4935185;29;20434;-79
2023/03/29 08:56:07;;;;;;;2.28;2.08;;;;;;;;;;4938316;29;20398;-78
2023/03/29 08:58:34;;;;;;;2.97;2.30;;;;;;;;;;4922067;29;20976;-79
2023/03/29 09:01:03;;;;;;;3.15;2.28;;;;;;;;;;4937287;29;20430;-79
2023/03/29 09:03:55;;;;;;;3.47;2.15;;;;;;;;;;4936936;29;20402;-79
2023/03/29 09:06:22;;;;;;;4.63;2.13;;;;;;;;;;4897354;29;20754;-79
2023/03/29 09:08:49;;;;;;;5.85;2.40;;;;;;;;;;4935167;29;20392;-79
2023/03/29 09:11:25;;;;;;;3.72;2.20;;;;;;;;;;4934727;29;20451;-79
2023/03/29 09:14:00;;;;;;;2.95;1.98;;;;;;;;;;4935473;29;20384;-79
2023/03/29 09:16:37;;;;;;;2.55;1.75;;;;;;;;;;4935083;29;20396;-79
2023/03/29 09:19:09;;;;;;;3.43;1.80;;;;;;;;;;4934756;29;20388;-79
2023/03/29 09:21:55;;;;;;;4.18;2.20;;;;;;;;;;4973569;28;20465;-78
2023/03/29 09:24:37;;;;;;;2.45;2.10;;;;;;;;;;5030470;28;20399;-79
2023/03/29 09:27:08;;;;;;;3.20;2.03;;;;;;;;;;5034352;28;20867;-79
2023/03/29 09:29:52;;;;;;;2.58;1.90;;;;;;;;;;5034200;28;20384;-79
2023/03/29 09:32:22;;;;;;;3.30;2.05;;;;;;;;;;5034484;28;20403;-78
2023/03/29 09:34:58;;;;;;;3.22;1.83;;;;;;;;;;5029211;28;20470;-79
2023/03/29 09:37:32;;;;;;;4.85;1.85;;;;;;;;;;5014187;28;20870;-79
2023/03/29 09:39:58;;;;;;;2.88;1.90;;;;;;;;;;5025724;28;20398;-79
2023/03/29 09:42:26;;;;;;;2.28;1.90;;;;;;;;;;5016014;28;20381;-78
2023/03/29 09:44:54;;;;;;;2.00;1.73;;;;;;;;;;5016033;28;20397;-79
2023/03/29 09:47:20;;;;;;;2.42;1.88;;;;;;;;;;5032454;28;20984;-79
2023/03/29 09:49:48;;;;;;;3.97;2.10;;;;;;;;;;5033861;28;20454;-78
2023/03/29 09:52:15;;;;;;;3.72;2.08;;;;;;;;;;5033224;28;20456;-79
2023/03/29 09:54:42;;;;;;;3.83;1.97;;;;;;;;;;5033614;28;21030;-79
2023/03/29 09:57:12;;;;;;;4.05;1.83;;;;;;;;;;5033666;28;20386;-79
2023/03/29 09:59:39;;;;;;;2.95;1.80;;;;;;;;;;5023966;28;20391;-78
2023/03/29 10:02:10;;;;;;;3.70;2.00;;;;;;;;;;5032144;28;20415;-79
2023/03/29 10:04:37;;;;;;;2.67;1.50;;;;;;;;;;5033434;28;20786;-79
2023/03/29 10:07:04;;;;;;;2.22;1.60;;;;;;;;;;5033730;28;20469;-79
2023/03/29 10:09:31;;;;;;;2.83;1.50;;;;;;;;;;5033308;28;20438;-79
2023/03/29 10:12:01;;;;;;;3.92;1.52;;;;;;;;;;5032974;28;20443;-79
2023/03/29 10:14:35;;;;;;;1.90;1.40;;;;;;;;;;5033193;28;20384;-79
2023/03/29 10:17:03;;;;;;;2.83;1.40;;;;;;;;;;5032783;28;20375;-79
2023/03/29 10:19:33;;;;;;;2.80;1.50;;;;;;;;;;5033285;28;20383;-79
2023/03/29 10:22:00;;;;;;;3.30;1.20;;;;;;;;;;5033129;28;20726;-79
2023/03/29 10:24:27;;;;;;;2.30;1.20;;;;;;;;;;5033192;28;20391;-79
2023/03/29 10:26:55;;;;;;;3.10;1.20;;;;;;;;;;5033122;28;20379;-79
2023/03/29 10:29:24;;;;;;;2.90;1.30;;;;;;;;;;5033183;28;20391;-79
2023/03/29 10:31:51;;;;;;;2.00;1.30;;;;;;;;;;5032700;28;20410;-79
2023/03/29 10:34:18;;;;;;;1.73;1.25;;;;;;;;;;5032986;28;20391;-79
2023/03/29 10:36:47;;;;;;;3.15;1.10;;;;;;;;;;5032796;28;20407;-79
2023/03/29 10:39:15;;;;;;;1.77;1.20;;;;;;;;;;5032918;28;20934;-79
2023/03/29 10:41:41;;;;;;;2.08;1.15;;;;;;;;;;5030174;28;20390;-79
2023/03/29 10:44:23;;;;;;;1.40;1.15;;;;;;;;;;5032260;28;20444;-79
2023/03/29 10:46:49;;;;;;;2.23;1.13;;;;;;;;;;5032062;28;20909;-79
2023/03/29 10:49:17;;;;;;;2.92;1.50;;;;;;;;;;5032910;28;20387;-79
2023/03/29 10:51:45;;;;;;;1.70;1.27;;;;;;;;;;5032607;28;20406;-79
2023/03/29 10:54:13;;;;;;;2.13;1.33;;;;;;;;;;5032689;28;20380;-79
2023/03/29 10:56:41;;;;;;;2.40;0.97;;;;;;;;;;5031908;28;20387;-79
2023/03/29 10:59:08;;;;;;;2.20;1.10;;;;;;;;;;5032203;28;20391;-78
2023/03/29 11:01:52;;;;;;;5.72;1.85;;;;;;;;;;5031682;28;20900;-78
2023/03/29 11:04:18;;;;;;;5.43;1.90;;;;;;;;;;5027497;28;20402;-78
2023/03/29 11:06:54;;;;;;;2.10;1.48;;;;;;;;;;5032560;28;20399;-79
2023/03/29 11:09:22;;;;;;;3.05;1.30;;;;;;;;;;5031959;28;20375;-79
2023/03/29 11:11:55;;;;;;;2.10;1.17;;;;;;;;;;5021589;28;20403;-79
2023/03/29 11:14:26;;;;;;;3.25;1.70;;;;;;;;;;5032351;28;20375;-79
2023/03/29 11:16:52;;;;;;;3.15;1.40;;;;;;;;;;5032353;28;20470;-79
2023/03/29 11:19:31;;;;;;;2.60;1.20;;;;;;;;;;5030964;28;20475;-78
2023/03/29 11:22:15;;;;;;;2.42;1.35;;;;;;;;;;5032050;28;20395;-79
2023/03/29 11:24:47;;;;;;;2.67;1.15;;;;;;;;;;5031972;28;20379;-79
2023/03/29 11:27:16;;;;;;;3.35;1.10;;;;;;;;;;5032203;28;20415;-79
2023/03/29 11:29:45;;;;;;;3.08;1.30;;;;;;;;;;5031378;28;20395;-79
2023/03/29 11:32:16;;;;;;;1.70;1.30;;;;;;;;;;5031359;28;20962;-79
2023/03/29 11:34:42;;;;;;;2.03;1.10;;;;;;;;;;5031500;28;20419;-78
2023/03/29 11:40:20;;;;;;;2.72;1.23;;;;;;;;;;5049778;28;20430;-86
2023/03/29 11:42:47;;;;;;;3.92;1.30;;;;;;;;;;5033749;28;20381;-88
2023/03/29 11:45:27;;;;;;;5.17;1.20;;;;;;;;;;5051619;28;20485;-86
2023/03/29 11:47:53;;;;;;;1.08;0.98;;;;;;;;;;5037152;28;20451;-85
2023/03/29 11:50:19;;;;;;;1.50;1.17;;;;;;;;;;5071310;28;20383;-83
2023/03/29 11:52:51;;;;;;;1.43;1.10;;;;;;;;;;5071261;28;20621;-83
2023/03/29 11:55:31;;;;;;;1.17;0.95;;;;;;;;;;5060022;28;20466;-83
2023/03/29 11:58:04;;;;;;;2.35;1.25;;;;;;;;;;5053344;28;20888;-84
2023/03/29 12:00:33;;;;;;;2.23;1.10;;;;;;;;;;5071295;28;20460;-85
2023/03/29 12:03:17;;;;;;;2.58;1.20;;;;;;;;;;5071186;28;20384;-84
2023/03/29 12:05:46;;;;;;;3.70;1.27;;;;;;;;;;5071258;28;20386;-83
2023/03/29 12:08:18;;;;;;;2.70;1.00;;;;;;;;;;5070675;28;20393;-86
2023/03/29 12:11:03;;;;;;;2.13;1.00;;;;;;;;;;5070645;28;20412;-85
2023/03/29 12:13:48;;;;;;;2.70;1.13;;;;;;;;;;5071429;28;20376;-84
2023/03/29 12:16:25;;;;;;;1.42;0.93;;;;;;;;;;5070925;28;20864;-84
2023/03/29 12:18:53;;;;;;;2.47;1.17;;;;;;;;;;5071425;28;20510;-86
2023/03/29 12:21:21;;;;;;;1.80;1.27;;;;;;;;;;5053401;28;20444;-86
2023/03/29 12:23:47;;;;;;;3.10;1.10;;;;;;;;;;5071223;28;20380;-86
2023/03/29 12:26:35;;;;;;;2.35;1.10;;;;;;;;;;5052993;28;20419;-87
2023/03/29 12:29:05;;;;;;;2.00;0.98;;;;;;;;;;5053043;28;20936;-86
2023/03/29 12:31:50;;;;;;;1.38;0.90;;;;;;;;;;5070990;28;20403;-87
2023/03/29 12:34:25;;;;;;;2.05;0.95;;;;;;;;;;5071370;28;20375;-87
2023/03/29 12:37:15;;;;;;;1.70;0.80;;;;;;;;;;5071225;28;20371;-86
2023/03/29 12:39:41;;;;;;;2.95;0.90;;;;;;;;;;5057847;28;20403;-86
2023/03/29 12:42:15;;;;;;;1.30;0.77;;;;;;;;;;5071028;28;20433;-86
2023/03/29 12:44:48;;;;;;;2.58;1.00;;;;;;;;;;5071055;28;20434;-87
2023/03/29 12:47:18;;;;;;;1.55;0.85;;;;;;;;;;5057450;28;20376;-86
2023/03/29 12:49:44;;;;;;;1.92;0.80;;;;;;;;;;5052357;28;20986;-88
2023/03/29 12:52:34;;;;;;;1.70;0.73;;;;;;;;;;5069504;28;20414;-89
2023/03/29 12:55:01;;;;;;;4.55;1.15;;;;;;;;;;5061757;28;21024;-88
2023/03/29 12:57:41;;;;;;;3.42;1.00;;;;;;;;;;5057884;28;20411;-88
2023/03/29 13:00:10;;;;;;;1.10;0.77;;;;;;;;;;5070967;28;20403;-89
2023/03/29 13:02:38;;;;;;;5.15;0.98;;;;;;;;;;5040279;28;20546;-88
2023/03/29 13:05:05;;;;;;;2.15;0.85;;;;;;;;;;5052496;28;21060;-88
2023/03/29 13:07:43;;;;;;;2.20;0.93;;;;;;;;;;5052942;28;20434;-88
2023/03/29 13:10:22;;;;;;;2.28;0.93;;;;;;;;;;5071076;28;20384;-89
2023/03/29 13:12:49;;;;;;;3.67;0.90;;;;;;;;;;5070156;28;20387;-88
2023/03/29 13:15:15;;;;;;;3.33;1.02;;;;;;;;;;5070387;28;20372;-88
2023/03/29 13:17:45;;;;;;;3.58;0.90;;;;;;;;;;5070560;28;20368;-88
2023/03/29 13:20:18;;;;;;;2.72;1.08;;;;;;;;;;5071257;28;20767;-88
2023/03/29 13:22:46;;;;;;;4.60;0.82;;;;;;;;;;5073712;28;20376;-89
2023/03/29 13:25:19;;;;;;;1.75;1.10;;;;;;;;;;5053313;28;20380;-89
2023/03/29 13:27:51;;;;;;;2.03;0.93;;;;;;;;;;5054156;28;20748;-89
2023/03/29 13:30:24;;;;;;;3.83;1.00;;;;;;;;;;5056531;28;20388;-88
2023/03/29 13:33:11;;;;;;;3.17;0.98;;;;;;;;;;5056531;28;20392;-87
2023/03/29 13:35:37;;;;;;;2.15;0.95;;;;;;;;;;5056706;28;20806;-88
2023/03/29 13:38:11;;;;;;;2.75;1.00;;;;;;;;;;5056054;28;20408;-88
2023/03/29 13:40:41;;;;;;;6.55;1.10;;;;;;;;;;5074635;28;20439;-88
2023/03/29 13:43:07;;;;;;;2.60;1.10;;;;;;;;;;5074454;28;20384;-87
2023/03/29 13:45:37;;;;;;;1.97;1.07;;;;;;;;;;5074200;28;20434;-88
2023/03/29 13:48:05;;;;;;;3.47;1.00;;;;;;;;;;5056306;28;20390;-88
2023/03/29 13:50:39;;;;;;;2.45;1.00;;;;;;;;;;5073824;28;20376;-88
2023/03/29 13:53:05;;;;;;;2.90;0.90;;;;;;;;;;5074147;28;20534;-89
2023/03/29 13:55:33;;;;;;;4.35;1.15;;;;;;;;;;5055593;28;20455;-89
2023/03/29 13:58:12;;;;;;;3.67;1.15;;;;;;;;;;5056460;28;20434;-90
2023/03/29 14:00:58;;;;;;;2.00;0.90;;;;;;;;;;5074018;28;20461;-88
2023/03/29 14:03:28;;;;;;;3.70;1.10;;;;;;;;;;5055572;28;20474;-86
2023/03/29 14:05:57;;;;;;;2.40;0.95;;;;;;;;;;5073711;28;20376;-89
2023/03/29 14:08:29;;;;;;;3.03;1.00;;;;;;;;;;5055490;28;20461;-89
2023/03/29 14:10:56;;;;;;;3.20;1.10;;;;;;;;;;5073826;28;20404;-89
2023/03/29 14:13:23;;;;;;;3.30;0.90;;;;;;;;;;5056200;28;20471;-90
2023/03/29 14:16:01;;;;;;;2.40;1.00;;;;;;;;;;5074458;28;20376;-90
2023/03/29 14:18:27;;;;;;;3.95;0.90;;;;;;;;;;5061640;28;20383;-88
2023/03/29 14:20:54;;;;;;;3.88;0.90;;;;;;;;;;5056005;28;20752;-89
2023/03/29 14:23:25;;;;;;;3.50;1.00;;;;;;;;;;5074004;28;20474;-88
2023/03/29 14:25:51;;;;;;;2.90;0.88;;;;;;;;;;5055910;28;20411;-89
2023/03/29 14:28:27;;;;;;;2.00;0.80;;;;;;;;;;5073360;28;20457;-90
2023/03/29 14:30:54;;;;;;;2.67;0.98;;;;;;;;;;5073219;28;20407;-88
2023/03/29 14:33:33;;;;;;;4.50;1.40;;;;;;;;;;5055060;28;20388;-89
2023/03/29 14:36:01;;;;;;;3.30;1.13;;;;;;;;;;5073391;28;20372;-88
2023/03/29 14:38:27;;;;;;;4.57;1.25;;;;;;;;;;5072314;28;20423;-89
2023/03/29 14:40:55;;;;;;;2.42;0.95;;;;;;;;;;5072702;28;20433;-88
2023/03/29 14:43:22;;;;;;;3.10;1.27;;;;;;;;;;5072953;28;20416;-89
2023/03/29 14:45:49;;;;;;;4.47;1.13;;;;;;;;;;5072686;28;20404;-90
2023/03/29 14:48:15;;;;;;;4.30;1.00;;;;;;;;;;5073000;28;20384;-89
2023/03/29 14:50:43;;;;;;;2.97;0.95;;;;;;;;;;5073345;28;20437;-88
2023/03/29 14:53:15;;;;;;;5.97;1.48;;;;;;;;;;5073187;28;20411;-89
2023/03/29 14:55:43;;;;;;;4.45;1.20;;;;;;;;;;5064224;28;20375;-87
2023/03/29 14:58:35;;;;;;;5.63;1.10;;;;;;;;;;5073016;28;20459;-87
2023/03/29 15:01:22;;;;;;;6.22;1.45;;;;;;;;;;5068199;28;20861;-86